createdAt,value
2024-02-20T00:00:32.418Z,94.70
2024-02-20T00:01:32.736Z,93.87
2024-02-20T00:02:32.396Z,93.60
2024-02-20T00:03:32.408Z,94.12
2024-02-20T00:04:32.443Z,93.91
2024-02-20T00:05:32.544Z,93.19
2024-02-20T00:06:32.386Z,93.30
2024-02-20T00:07:32.376Z,93.81
2024-02-20T00:08:32.357Z,93.81
2024-02-20T00:09:32.403Z,93.50
2024-02-20T00:10:32.347Z,93.60
2024-02-20T00:11:32.425Z,93.30
2024-02-20T00:12:32.341Z,93.19
2024-02-20T00:13:32.473Z,93.30
2024-02-20T00:14:32.270Z,93.85
2024-02-20T00:15:32.274Z,94.37
2024-02-20T00:16:32.404Z,94.17
2024-02-20T00:17:32.283Z,93.44
2024-02-20T00:18:32.332Z,93.34
2024-02-20T00:19:32.315Z,93.24
2024-02-20T00:20:32.287Z,93.75
2024-02-20T00:21:32.230Z,94.37
2024-02-20T00:22:32.255Z,94.27
2024-02-20T00:23:32.195Z,93.65
2024-02-20T00:24:32.207Z,93.34
2024-02-20T00:25:32.244Z,93.65
2024-02-20T00:26:32.152Z,94.32
2024-02-20T00:27:32.152Z,95.05
2024-02-20T00:28:32.185Z,95.56
2024-02-20T00:29:32.117Z,93.91
2024-02-20T00:30:32.119Z,93.30
2024-02-20T00:31:32.199Z,93.19
2024-02-20T00:32:32.147Z,93.30
2024-02-20T00:33:32.096Z,93.19
2024-02-20T00:34:32.172Z,93.30
2024-02-20T00:35:32.149Z,93.81
2024-02-20T00:36:32.025Z,94.12
2024-02-20T00:37:32.102Z,93.81
2024-02-20T00:38:32.006Z,93.50
2024-02-20T00:39:32.019Z,93.09
2024-02-20T00:40:32.012Z,92.68
2024-02-20T00:41:32.005Z,91.96
2024-02-20T00:42:31.961Z,91.91
2024-02-20T00:43:32.058Z,91.40
2024-02-20T00:44:31.975Z,91.91
2024-02-20T00:45:31.987Z,92.43
2024-02-20T00:46:32.072Z,92.02
2024-02-20T00:47:31.970Z,91.09
2024-02-20T00:48:31.932Z,90.78
2024-02-20T00:49:32.016Z,91.30
2024-02-20T00:50:31.887Z,90.47
2024-02-20T00:51:32.034Z,90.67
2024-02-20T00:52:31.956Z,90.37
2024-02-20T00:53:31.869Z,90.26
2024-02-20T00:54:31.847Z,90.16
2024-02-20T00:55:31.894Z,90.26
2024-02-20T00:56:31.845Z,89.85
2024-02-20T00:57:31.880Z,90.26
2024-02-20T00:58:31.844Z,90.67
2024-02-20T00:59:31.805Z,90.26
2024-02-20T01:00:31.829Z,90.12
2024-02-20T01:01:31.919Z,91.40
2024-02-20T01:02:31.760Z,91.91
2024-02-20T01:03:31.841Z,90.99
2024-02-20T01:04:31.795Z,90.43
2024-02-20T01:05:31.736Z,90.26
2024-02-20T01:06:31.839Z,89.40
2024-02-20T01:07:31.861Z,89.50
2024-02-20T01:08:31.686Z,90.12
2024-02-20T01:09:31.726Z,89.29
2024-02-20T01:10:31.806Z,88.99
2024-02-20T01:11:31.735Z,89.29
2024-02-20T01:12:31.641Z,89.71
2024-02-20T01:13:31.718Z,90.53
2024-02-20T01:14:31.802Z,88.99
2024-02-20T01:15:31.620Z,88.17
2024-02-20T01:16:31.757Z,88.82
2024-02-20T01:17:31.601Z,87.99
2024-02-20T01:18:31.626Z,88.20
2024-02-20T01:19:31.706Z,88.51
2024-02-20T01:20:31.601Z,87.48
2024-02-20T01:21:31.561Z,87.38
2024-02-20T01:22:31.621Z,87.17
2024-02-20T01:23:31.546Z,87.69
2024-02-20T01:24:31.504Z,88.92
2024-02-20T01:25:31.638Z,87.79
2024-02-20T01:26:31.611Z,87.48
2024-02-20T01:27:31.517Z,87.38
2024-02-20T01:28:31.518Z,87.90
2024-02-20T01:29:31.470Z,89.23
2024-02-20T01:30:31.439Z,88.82
2024-02-20T01:31:31.606Z,88.31
2024-02-20T01:32:31.470Z,88.62
2024-02-20T01:33:31.659Z,88.20
2024-02-20T01:34:31.484Z,87.48
2024-02-20T01:35:31.399Z,86.76
2024-02-20T01:36:31.376Z,87.07
2024-02-20T01:37:31.541Z,87.07
2024-02-20T01:38:31.381Z,87.48
2024-02-20T01:39:31.386Z,87.17
2024-02-20T01:40:31.450Z,86.87
2024-02-20T01:41:31.368Z,86.87
2024-02-20T01:42:31.308Z,86.35
2024-02-20T01:43:31.385Z,86.45
2024-02-20T01:44:31.323Z,86.66
2024-02-20T01:45:31.314Z,87.27
2024-02-20T01:46:31.347Z,86.35
2024-02-20T01:47:31.341Z,87.48
2024-02-20T01:48:31.423Z,86.76
2024-02-20T01:49:31.428Z,86.66
2024-02-20T01:50:31.313Z,85.63
2024-02-20T01:51:31.323Z,85.73
2024-02-20T01:52:31.312Z,85.73
2024-02-20T01:53:31.325Z,85.94
2024-02-20T01:54:31.189Z,85.83
2024-02-20T01:55:31.407Z,85.15
2024-02-20T01:56:31.195Z,85.46
2024-02-20T01:57:31.164Z,84.94
2024-02-20T01:58:31.987Z,84.64
2024-02-20T01:59:31.192Z,84.53
2024-02-20T02:00:31.179Z,84.43
2024-02-20T02:01:31.282Z,85.25
2024-02-20T02:02:31.154Z,85.25
2024-02-20T02:03:31.158Z,84.99
2024-02-20T02:04:31.338Z,86.74
2024-02-20T02:05:31.254Z,86.94
2024-02-20T02:06:31.128Z,85.39
2024-02-20T02:07:31.121Z,85.71
2024-02-20T02:08:31.088Z,86.43
2024-02-20T02:09:31.032Z,86.43
2024-02-20T02:10:31.054Z,85.30
2024-02-20T02:11:31.050Z,85.71
2024-02-20T02:12:30.997Z,85.19
2024-02-20T02:13:31.169Z,85.19
2024-02-20T02:14:31.016Z,85.71
2024-02-20T02:15:30.968Z,84.78
2024-02-20T02:16:31.008Z,84.88
2024-02-20T02:17:30.966Z,85.30
2024-02-20T02:18:31.040Z,85.50
2024-02-20T02:19:31.060Z,87.05
2024-02-20T02:20:30.938Z,87.77
2024-02-20T02:21:30.900Z,86.49
2024-02-20T02:22:31.041Z,85.25
2024-02-20T02:23:30.869Z,86.29
2024-02-20T02:24:30.852Z,86.60
2024-02-20T02:25:30.930Z,87.32
2024-02-20T02:26:30.890Z,87.11
2024-02-20T02:27:30.831Z,87.42
2024-02-20T02:28:31.003Z,87.01
2024-02-20T02:29:30.813Z,87.73
2024-02-20T02:30:30.803Z,87.21
2024-02-20T02:31:30.911Z,87.11
2024-02-20T02:32:30.846Z,86.39
2024-02-20T02:33:30.776Z,86.49
2024-02-20T02:34:30.994Z,86.39
2024-02-20T02:35:30.873Z,85.67
2024-02-20T02:36:30.722Z,86.90
2024-02-20T02:37:30.751Z,86.80
2024-02-20T02:38:30.726Z,86.08
2024-02-20T02:39:30.706Z,86.49
2024-02-20T02:40:30.819Z,86.70
2024-02-20T02:41:30.695Z,89.28
2024-02-20T02:42:30.657Z,89.07
2024-02-20T02:43:30.697Z,88.24
2024-02-20T02:44:30.673Z,88.96
2024-02-20T02:45:30.647Z,89.69
2024-02-20T02:46:30.709Z,90.10
2024-02-20T02:47:30.629Z,90.61
2024-02-20T02:48:30.622Z,90.82
2024-02-20T02:49:30.781Z,92.51
2024-02-20T02:50:30.628Z,91.89
2024-02-20T02:51:30.574Z,92.51
2024-02-20T02:52:30.626Z,93.54
2024-02-20T02:53:30.599Z,93.65
2024-02-20T02:54:30.548Z,92.61
2024-02-20T02:55:30.569Z,92.72
2024-02-20T02:56:30.563Z,93.54
2024-02-20T02:57:30.538Z,94.89
2024-02-20T02:58:30.516Z,94.68
2024-02-20T02:59:30.482Z,94.31
2024-02-20T03:00:30.471Z,94.68
2024-02-20T03:01:30.527Z,93.49
2024-02-20T03:02:30.447Z,91.94
2024-02-20T03:03:30.522Z,92.41
2024-02-20T03:04:30.466Z,92.04
2024-02-20T03:05:30.422Z,92.46
2024-02-20T03:06:30.459Z,91.94
2024-02-20T03:07:30.527Z,91.94
2024-02-20T03:08:30.373Z,92.72
2024-02-20T03:09:30.441Z,93.18
2024-02-20T03:10:30.397Z,92.86
2024-02-20T03:11:30.386Z,92.35
2024-02-20T03:12:32.798Z,92.46
2024-02-20T03:13:30.391Z,93.38
2024-02-20T03:14:30.311Z,92.35
2024-02-20T03:15:30.354Z,92.76
2024-02-20T03:16:30.347Z,92.76
2024-02-20T03:17:30.341Z,92.04
2024-02-20T03:18:30.284Z,92.46
2024-02-20T03:19:30.364Z,92.10
2024-02-20T03:20:30.238Z,92.14
2024-02-20T03:21:30.290Z,92.51
2024-02-20T03:22:30.349Z,92.93
2024-02-20T03:23:30.230Z,93.24
2024-02-20T03:24:30.215Z,93.96
2024-02-20T03:25:30.294Z,93.07
2024-02-20T03:26:30.312Z,92.76
2024-02-20T03:27:30.227Z,93.69
2024-02-20T03:28:30.186Z,94.31
2024-02-20T03:29:30.173Z,93.90
2024-02-20T03:30:30.124Z,93.90
2024-02-20T03:31:30.202Z,93.90
2024-02-20T03:32:30.143Z,93.59
2024-02-20T03:33:30.205Z,93.69
2024-02-20T03:34:30.170Z,93.90
2024-02-20T03:35:30.085Z,94.00
2024-02-20T03:36:30.097Z,93.79
2024-02-20T03:37:30.131Z,93.28
2024-02-20T03:38:30.060Z,93.28
2024-02-20T03:39:30.047Z,93.38
2024-02-20T03:40:30.080Z,93.18
2024-02-20T03:41:30.068Z,93.49
2024-02-20T03:42:30.000Z,93.38
2024-02-20T03:43:30.123Z,93.59
2024-02-20T03:44:30.012Z,93.59
2024-02-20T03:45:29.982Z,93.90
2024-02-20T03:46:29.971Z,93.90
2024-02-20T03:47:30.167Z,93.90
2024-02-20T03:48:30.110Z,92.97
2024-02-20T03:49:30.153Z,92.46
2024-02-20T03:50:29.963Z,92.86
2024-02-20T03:51:29.924Z,93.49
2024-02-20T03:52:30.009Z,91.83
2024-02-20T03:53:29.949Z,91.94
2024-02-20T03:54:29.877Z,92.04
2024-02-20T03:55:29.934Z,92.46
2024-02-20T03:56:29.849Z,91.83
2024-02-20T03:57:29.860Z,92.66
2024-02-20T03:58:29.859Z,93.07
2024-02-20T03:59:29.866Z,92.66
2024-02-20T04:00:29.848Z,92.66
2024-02-20T04:01:29.893Z,92.97
2024-02-20T04:02:29.778Z,93.49
2024-02-20T04:03:29.816Z,93.38
2024-02-20T04:04:29.771Z,93.18
2024-02-20T04:05:29.799Z,92.97
2024-02-20T04:06:29.878Z,92.46
2024-02-20T04:07:29.793Z,91.42
2024-02-20T04:08:29.713Z,90.49
2024-02-20T04:09:29.783Z,90.28
2024-02-20T04:10:29.773Z,90.59
2024-02-20T04:11:29.740Z,92.14
2024-02-20T04:12:29.693Z,91.83
2024-02-20T04:13:29.700Z,91.22
2024-02-20T04:14:29.702Z,91.83
2024-02-20T04:15:29.711Z,92.25
2024-02-20T04:16:29.695Z,92.66
2024-02-20T04:17:29.708Z,92.97
2024-02-20T04:18:29.730Z,92.66
2024-02-20T04:19:29.757Z,91.94
2024-02-20T04:20:29.696Z,92.35
2024-02-20T04:21:29.667Z,92.66
2024-02-20T04:22:29.628Z,92.97
2024-02-20T04:23:29.699Z,92.55
2024-02-20T04:24:29.551Z,92.97
2024-02-20T04:25:29.644Z,91.63
2024-02-20T04:26:29.605Z,91.63
2024-02-20T04:27:29.506Z,91.11
2024-02-20T04:28:29.653Z,90.91
2024-02-20T04:29:29.490Z,91.32
2024-02-20T04:30:29.484Z,90.70
2024-02-20T04:31:29.612Z,91.52
2024-02-20T04:32:29.492Z,91.52
2024-02-20T04:33:29.492Z,91.52
2024-02-20T04:34:29.495Z,92.14
2024-02-20T04:35:29.418Z,92.55
2024-02-20T04:36:29.510Z,90.80
2024-02-20T04:37:29.506Z,91.32
2024-02-20T04:38:29.425Z,90.70
2024-02-20T04:39:29.384Z,91.01
2024-02-20T04:40:29.463Z,90.39
2024-02-20T04:41:29.359Z,90.59
2024-02-20T04:42:29.356Z,90.70
2024-02-20T04:43:29.473Z,90.80
2024-02-20T04:44:29.487Z,90.80
2024-02-20T04:45:29.340Z,90.80
2024-02-20T04:46:29.410Z,89.87
2024-02-20T04:47:29.364Z,90.19
2024-02-20T04:48:29.367Z,90.08
2024-02-20T04:49:29.338Z,89.98
2024-02-20T04:50:29.270Z,90.08
2024-02-20T04:51:29.256Z,88.84
2024-02-20T04:52:29.278Z,89.77
2024-02-20T04:53:29.252Z,89.25
2024-02-20T04:54:29.233Z,89.15
2024-02-20T04:55:29.278Z,89.05
2024-02-20T04:56:29.234Z,89.67
2024-02-20T04:57:29.257Z,90.08
2024-02-20T04:58:29.253Z,90.28
2024-02-20T04:59:29.166Z,89.67
2024-02-20T05:00:29.174Z,89.77
2024-02-20T05:01:29.259Z,88.95
2024-02-20T05:02:29.144Z,89.15
2024-02-20T05:03:29.146Z,88.64
2024-02-20T05:04:29.281Z,88.84
2024-02-20T05:05:29.099Z,89.77
2024-02-20T05:06:29.123Z,89.09
2024-02-20T05:07:29.149Z,89.19
2024-02-20T05:08:29.098Z,88.68
2024-02-20T05:09:29.062Z,89.29
2024-02-20T05:10:29.124Z,89.40
2024-02-20T05:11:29.068Z,89.54
2024-02-20T05:12:29.042Z,89.95
2024-02-20T05:13:29.158Z,90.26
2024-02-20T05:14:29.013Z,90.47
2024-02-20T05:15:28.990Z,90.78
2024-02-20T05:16:29.110Z,90.68
2024-02-20T05:17:29.011Z,90.47
2024-02-20T05:18:29.024Z,91.09
2024-02-20T05:19:29.101Z,90.58
2024-02-20T05:20:35.479Z,90.16
2024-02-20T05:21:28.920Z,90.26
2024-02-20T05:22:29.063Z,90.99
2024-02-20T05:23:28.912Z,90.58
2024-02-20T05:24:28.904Z,90.68
2024-02-20T05:25:28.950Z,90.89
2024-02-20T05:26:28.878Z,90.58
2024-02-20T05:27:28.877Z,91.61
2024-02-20T05:28:28.906Z,91.61
2024-02-20T05:29:28.836Z,91.50
2024-02-20T05:30:28.840Z,91.30
2024-02-20T05:31:28.908Z,92.23
2024-02-20T05:32:28.923Z,93.68
2024-02-20T05:33:28.873Z,93.57
2024-02-20T05:34:28.834Z,92.95
2024-02-20T05:35:28.832Z,92.44
2024-02-20T05:36:28.767Z,92.85
2024-02-20T05:37:28.895Z,92.23
2024-02-20T05:38:28.762Z,92.02
2024-02-20T05:39:28.758Z,92.02
2024-02-20T05:40:28.864Z,90.58
2024-02-20T05:41:28.781Z,90.26
2024-02-20T05:42:28.745Z,91.09
2024-02-20T05:43:28.881Z,92.23
2024-02-20T05:44:28.750Z,90.37
2024-02-20T05:45:28.674Z,90.64
2024-02-20T05:46:28.881Z,89.75
2024-02-20T05:47:28.721Z,89.95
2024-02-20T05:48:28.835Z,90.58
2024-02-20T05:49:28.802Z,92.13
2024-02-20T05:50:28.893Z,91.82
2024-02-20T05:51:28.903Z,90.16
2024-02-20T05:52:28.679Z,90.06
2024-02-20T05:53:28.574Z,90.37
2024-02-20T05:54:28.576Z,89.44
2024-02-20T05:55:28.643Z,90.58
2024-02-20T05:56:28.575Z,89.65
2024-02-20T05:57:28.536Z,89.13
2024-02-20T05:58:28.596Z,89.54
2024-02-20T05:59:28.508Z,89.03
2024-02-20T06:00:28.532Z,88.41
2024-02-20T06:01:28.605Z,88.61
2024-02-20T06:02:30.918Z,89.44
2024-02-20T06:03:28.428Z,89.44
2024-02-20T06:04:28.516Z,88.61
2024-02-20T06:05:28.605Z,87.58
2024-02-20T06:06:28.483Z,87.89
2024-02-20T06:07:28.410Z,87.37
2024-02-20T06:08:28.435Z,87.74
2024-02-20T06:09:28.360Z,87.74
2024-02-20T06:10:28.457Z,87.65
2024-02-20T06:11:28.417Z,88.37
2024-02-20T06:12:28.398Z,88.26
2024-02-20T06:13:28.358Z,87.85
2024-02-20T06:14:28.317Z,87.34
2024-02-20T06:15:28.316Z,87.95
2024-02-20T06:16:28.513Z,87.85
2024-02-20T06:17:28.323Z,87.85
2024-02-20T06:18:28.396Z,87.44
2024-02-20T06:19:28.431Z,87.44
2024-02-20T06:20:28.241Z,87.23
2024-02-20T06:21:28.229Z,87.23
2024-02-20T06:22:28.248Z,87.44
2024-02-20T06:23:28.232Z,87.23
2024-02-20T06:24:28.252Z,87.02
2024-02-20T06:25:28.232Z,87.85
2024-02-20T06:26:28.188Z,88.26
2024-02-20T06:27:28.200Z,87.85
2024-02-20T06:28:28.179Z,87.65
2024-02-20T06:29:28.143Z,88.06
2024-02-20T06:30:28.193Z,87.65
2024-02-20T06:31:28.187Z,86.92
2024-02-20T06:32:29.551Z,87.34
2024-02-20T06:33:28.296Z,87.07
2024-02-20T06:34:28.457Z,87.48
2024-02-20T06:35:28.135Z,87.99
2024-02-20T06:36:28.117Z,88.10
2024-02-20T06:37:28.104Z,87.79
2024-02-20T06:38:28.052Z,87.99
2024-02-20T06:39:28.027Z,86.76
2024-02-20T06:40:28.102Z,87.27
2024-02-20T06:41:28.012Z,87.58
2024-02-20T06:42:28.083Z,87.37
2024-02-20T06:43:28.039Z,87.17
2024-02-20T06:44:28.004Z,87.27
2024-02-20T06:45:27.999Z,88.10
2024-02-20T06:46:28.034Z,88.76
2024-02-20T06:47:27.999Z,88.55
2024-02-20T06:48:28.056Z,87.93
2024-02-20T06:49:28.163Z,87.52
2024-02-20T06:50:27.939Z,87.73
2024-02-20T06:51:27.900Z,88.04
2024-02-20T06:52:27.940Z,88.45
2024-02-20T06:53:27.937Z,88.04
2024-02-20T06:54:27.926Z,87.73
2024-02-20T06:55:27.940Z,87.93
2024-02-20T06:56:27.856Z,87.93
2024-02-20T06:57:27.886Z,88.14
2024-02-20T06:58:27.932Z,88.86
2024-02-20T06:59:27.816Z,88.45
2024-02-20T07:00:27.981Z,88.34
2024-02-20T07:01:27.922Z,88.34
2024-02-20T07:02:27.854Z,88.04
2024-02-20T07:03:27.829Z,88.24
2024-02-20T07:04:27.970Z,88.45
2024-02-20T07:05:28.002Z,88.24
2024-02-20T07:06:27.940Z,88.04
2024-02-20T07:07:27.743Z,88.65
2024-02-20T07:08:27.751Z,89.17
2024-02-20T07:09:27.752Z,88.96
2024-02-20T07:10:27.807Z,88.86
2024-02-20T07:11:28.159Z,88.80
2024-02-20T07:12:27.725Z,88.90
2024-02-20T07:13:27.717Z,88.39
2024-02-20T07:14:27.689Z,88.76
2024-02-20T07:15:27.649Z,89.01
2024-02-20T07:16:27.669Z,89.11
2024-02-20T07:17:28.562Z,89.52
2024-02-20T07:18:27.736Z,89.52
2024-02-20T07:19:27.684Z,89.42
2024-02-20T07:20:27.770Z,89.22
2024-02-20T07:21:27.593Z,89.73
2024-02-20T07:22:27.592Z,90.25
2024-02-20T07:23:27.556Z,89.83
2024-02-20T07:24:27.590Z,90.25
2024-02-20T07:25:27.582Z,90.25
2024-02-20T07:26:27.533Z,90.45
2024-02-20T07:27:27.511Z,90.25
2024-02-20T07:28:27.558Z,90.56
2024-02-20T07:29:27.506Z,90.25
2024-02-20T07:30:27.555Z,90.56
2024-02-20T07:31:27.512Z,90.77
2024-02-20T07:32:27.528Z,90.56
2024-02-20T07:33:34.975Z,90.77
2024-02-20T07:34:27.610Z,90.45
2024-02-20T07:35:27.642Z,90.45
2024-02-20T07:36:27.481Z,90.52
2024-02-20T07:37:27.438Z,90.72
2024-02-20T07:38:27.424Z,90.52
2024-02-20T07:39:27.406Z,90.52
2024-02-20T07:40:27.460Z,90.10
2024-02-20T07:41:27.374Z,89.48
2024-02-20T07:42:27.429Z,89.07
2024-02-20T07:43:27.388Z,88.31
2024-02-20T07:44:27.344Z,88.41
2024-02-20T07:45:27.322Z,87.89
2024-02-20T07:46:27.352Z,87.65
2024-02-20T07:47:27.382Z,87.23
2024-02-20T07:48:27.389Z,86.41
2024-02-20T07:49:27.478Z,86.47
2024-02-20T07:50:27.502Z,86.05
2024-02-20T07:51:27.253Z,86.36
2024-02-20T07:52:27.281Z,86.68
2024-02-20T07:53:27.242Z,86.26
2024-02-20T07:54:27.237Z,85.81
2024-02-20T07:55:27.329Z,86.02
2024-02-20T07:56:27.219Z,87.87
2024-02-20T07:57:27.293Z,87.77
2024-02-20T07:58:34.354Z,88.18
2024-02-20T07:59:27.177Z,87.98
2024-02-20T08:00:27.196Z,86.29
2024-02-20T08:01:27.357Z,85.91
2024-02-20T08:02:27.302Z,85.67
2024-02-20T08:03:27.130Z,85.36
2024-02-20T08:04:27.275Z,85.05
2024-02-20T08:05:27.357Z,84.74
2024-02-20T08:06:27.163Z,84.74
2024-02-20T08:07:27.143Z,84.53
2024-02-20T08:08:27.090Z,84.74
2024-02-20T08:09:27.077Z,84.49
2024-02-20T08:10:27.114Z,84.39
2024-02-20T08:11:27.131Z,83.87
2024-02-20T08:12:27.040Z,85.01
2024-02-20T08:13:27.094Z,85.73
2024-02-20T08:14:27.056Z,86.45
2024-02-20T08:15:26.998Z,85.01
2024-02-20T08:16:27.063Z,83.77
2024-02-20T08:17:27.027Z,85.28
2024-02-20T08:18:27.040Z,85.89
2024-02-20T08:19:27.146Z,85.79
2024-02-20T08:20:27.050Z,84.35
2024-02-20T08:21:26.923Z,84.45
2024-02-20T08:22:26.990Z,83.12
2024-02-20T08:23:26.908Z,82.19
2024-02-20T08:24:26.971Z,82.19
2024-02-20T08:25:26.930Z,82.29
2024-02-20T08:26:26.905Z,81.67
2024-02-20T08:27:26.886Z,82.40
2024-02-20T08:28:26.918Z,83.42
2024-02-20T08:29:26.854Z,84.77
2024-02-20T08:30:26.851Z,83.73
2024-02-20T08:31:26.934Z,82.97
2024-02-20T08:32:26.818Z,82.56
2024-02-20T08:33:26.910Z,82.05
2024-02-20T08:34:26.826Z,82.67
2024-02-20T08:35:26.856Z,81.23
2024-02-20T08:36:26.794Z,80.91
2024-02-20T08:37:26.854Z,81.02
2024-02-20T08:38:26.748Z,80.91
2024-02-20T08:39:26.849Z,80.91
2024-02-20T08:40:26.760Z,81.95
2024-02-20T08:41:26.725Z,80.81
2024-02-20T08:42:26.719Z,81.43
2024-02-20T08:43:26.782Z,81.02
2024-02-20T08:44:26.773Z,81.12
2024-02-20T08:45:26.730Z,80.57
2024-02-20T08:46:26.714Z,81.09
2024-02-20T08:47:26.699Z,80.57
2024-02-20T08:48:26.736Z,81.09
2024-02-20T08:49:31.605Z,80.36
2024-02-20T08:50:26.667Z,80.47
2024-02-20T08:51:26.633Z,80.47
2024-02-20T08:52:26.641Z,78.92
2024-02-20T08:53:26.591Z,79.64
2024-02-20T08:54:26.581Z,79.95
2024-02-20T08:55:26.640Z,81.09
2024-02-20T08:56:26.548Z,79.95
2024-02-20T08:57:26.590Z,80.26
2024-02-20T08:58:26.716Z,80.12
2024-02-20T08:59:26.570Z,81.05
2024-02-20T09:00:26.501Z,79.40
2024-02-20T09:01:26.812Z,79.30
2024-02-20T09:02:26.653Z,79.30
2024-02-20T09:03:26.485Z,79.81
2024-02-20T09:04:26.578Z,79.81
2024-02-20T09:05:26.621Z,80.22
2024-02-20T09:06:26.466Z,79.61
2024-02-20T09:07:26.544Z,79.81
2024-02-20T09:08:26.424Z,80.33
2024-02-20T09:09:26.422Z,80.91
2024-02-20T09:10:26.445Z,79.57
2024-02-20T09:11:26.513Z,79.67
2024-02-20T09:12:26.391Z,80.80
2024-02-20T09:13:26.399Z,78.44
2024-02-20T09:14:26.367Z,78.30
2024-02-20T09:15:26.383Z,78.54
2024-02-20T09:16:26.448Z,79.33
2024-02-20T09:17:26.328Z,79.12
2024-02-20T09:18:26.362Z,78.30
2024-02-20T09:19:26.457Z,78.09
2024-02-20T09:20:26.383Z,78.92
2024-02-20T09:21:26.289Z,79.43
2024-02-20T09:22:26.332Z,79.02
2024-02-20T09:23:26.271Z,77.99
2024-02-20T09:24:26.239Z,77.78
2024-02-20T09:25:26.272Z,78.71
2024-02-20T09:26:26.219Z,79.02
2024-02-20T09:27:26.233Z,78.16
2024-02-20T09:28:26.262Z,77.85
2024-02-20T09:29:26.219Z,77.13
2024-02-20T09:30:26.196Z,77.75
2024-02-20T09:31:26.214Z,78.47
2024-02-20T09:32:26.178Z,78.85
2024-02-20T09:33:26.331Z,76.38
2024-02-20T09:34:26.281Z,77.00
2024-02-20T09:35:26.151Z,76.48
2024-02-20T09:36:26.143Z,76.58
2024-02-20T09:37:26.167Z,77.51
2024-02-20T09:38:26.112Z,77.68
2024-02-20T09:39:26.123Z,77.47
2024-02-20T09:40:26.101Z,76.34
2024-02-20T09:41:26.081Z,75.93
2024-02-20T09:42:26.104Z,75.45
2024-02-20T09:43:26.173Z,75.83
2024-02-20T09:44:26.026Z,76.34
2024-02-20T09:45:26.072Z,77.37
2024-02-20T09:46:26.020Z,75.49
2024-02-20T09:47:26.017Z,75.28
2024-02-20T09:48:26.171Z,74.91
2024-02-20T09:49:26.086Z,75.83
2024-02-20T09:50:26.429Z,75.18
2024-02-20T09:51:26.028Z,75.28
2024-02-20T09:52:25.984Z,75.28
2024-02-20T09:53:25.943Z,74.84
2024-02-20T09:54:25.921Z,75.42
2024-02-20T09:55:26.406Z,73.88
2024-02-20T09:56:25.933Z,74.87
2024-02-20T09:57:25.925Z,73.85
2024-02-20T09:58:27.332Z,74.36
2024-02-20T09:59:25.886Z,73.06
2024-02-20T10:00:25.887Z,73.36
2024-02-20T10:01:25.920Z,74.60
2024-02-20T10:02:25.831Z,73.78
2024-02-20T10:03:25.867Z,73.81
2024-02-20T10:04:25.877Z,74.12
2024-02-20T10:05:25.977Z,73.95
2024-02-20T10:06:25.805Z,75.49
2024-02-20T10:07:25.806Z,74.77
2024-02-20T10:08:25.780Z,75.18
2024-02-20T10:09:25.817Z,75.08
2024-02-20T10:10:25.808Z,75.28
2024-02-20T10:11:25.809Z,74.66
2024-02-20T10:12:25.817Z,74.98
2024-02-20T10:13:25.739Z,75.38
2024-02-20T10:14:25.729Z,75.04
2024-02-20T10:15:25.748Z,74.73
2024-02-20T10:16:25.752Z,74.15
2024-02-20T10:17:25.776Z,74.87
2024-02-20T10:18:25.667Z,74.57
2024-02-20T10:19:25.743Z,74.66
2024-02-20T10:20:25.851Z,75.08
2024-02-20T10:21:25.692Z,74.98
2024-02-20T10:22:25.950Z,74.66
2024-02-20T10:23:25.619Z,74.98
2024-02-20T10:24:32.051Z,74.26
2024-02-20T10:25:25.656Z,75.56
2024-02-20T10:26:25.610Z,75.56
2024-02-20T10:27:25.588Z,74.22
2024-02-20T10:28:25.643Z,73.81
2024-02-20T10:29:25.570Z,73.81
2024-02-20T10:30:25.534Z,73.57
2024-02-20T10:31:25.574Z,73.27
2024-02-20T10:32:25.677Z,72.75
2024-02-20T10:33:25.698Z,73.10
2024-02-20T10:34:25.630Z,73.81
2024-02-20T10:35:25.636Z,74.02
2024-02-20T10:36:25.474Z,73.88
2024-02-20T10:37:25.565Z,74.05
2024-02-20T10:38:25.497Z,72.92
2024-02-20T10:39:25.490Z,72.11
2024-02-20T10:40:27.981Z,72.41
2024-02-20T10:41:25.453Z,72.69
2024-02-20T10:42:25.428Z,72.55
2024-02-20T10:43:25.449Z,71.80
2024-02-20T10:44:25.464Z,71.01
2024-02-20T10:45:25.391Z,71.49
2024-02-20T10:46:25.387Z,70.84
2024-02-20T10:47:25.484Z,68.80
2024-02-20T10:48:25.448Z,69.69
2024-02-20T10:49:26.162Z,70.10
2024-02-20T10:50:25.640Z,69.65
2024-02-20T10:51:25.340Z,68.63
2024-02-20T10:52:25.305Z,67.89
2024-02-20T10:53:25.305Z,67.85
2024-02-20T10:54:29.531Z,66.63
2024-02-20T10:55:32.407Z,67.11
2024-02-20T10:56:25.341Z,65.75
2024-02-20T10:57:25.343Z,65.58
2024-02-20T10:58:25.285Z,65.89
2024-02-20T10:59:25.245Z,67.21
2024-02-20T11:00:25.224Z,67.82
2024-02-20T11:01:25.467Z,67.29
2024-02-20T11:02:25.245Z,65.17
2024-02-20T11:03:25.194Z,66.22
2024-02-20T11:04:25.224Z,66.94
2024-02-20T11:05:25.483Z,67.14
2024-02-20T11:06:25.314Z,67.04
2024-02-20T11:07:25.260Z,66.74
2024-02-20T11:08:25.208Z,67.24
2024-02-20T11:09:25.219Z,68.26
2024-02-20T11:10:25.138Z,68.13
2024-02-20T11:11:25.281Z,67.32
2024-02-20T11:12:25.075Z,66.39
2024-02-20T11:13:25.094Z,66.46
2024-02-20T11:14:25.075Z,67.48
2024-02-20T11:15:25.072Z,67.99
2024-02-20T11:16:26.693Z,67.79
2024-02-20T11:17:29.491Z,67.51
2024-02-20T11:18:25.168Z,67.82
2024-02-20T11:19:25.222Z,68.63
2024-02-20T11:21:15.827Z,68.94
2024-02-20T11:22:16.826Z,68.26
2024-02-20T11:23:16.824Z,67.85
2024-02-20T11:24:17.875Z,68.77
2024-02-20T11:25:16.828Z,69.24
2024-02-20T11:26:16.830Z,68.53
2024-02-20T11:27:16.753Z,68.43
2024-02-20T11:28:17.869Z,68.23
2024-02-20T11:29:16.779Z,68.63
2024-02-20T11:30:16.719Z,68.26
2024-02-20T11:31:16.707Z,69.28
2024-02-20T11:32:16.706Z,69.48
2024-02-20T11:33:17.265Z,68.87
2024-02-20T11:34:16.831Z,69.48
2024-02-20T11:35:16.827Z,70.88
2024-02-20T11:36:16.636Z,68.74
2024-02-20T11:37:16.687Z,68.63
2024-02-20T11:38:16.661Z,67.79
2024-02-20T11:39:16.635Z,67.48
2024-02-20T11:40:16.620Z,66.08
2024-02-20T11:41:16.626Z,67.61
2024-02-20T11:42:16.594Z,66.90
2024-02-20T11:43:16.618Z,67.00
2024-02-20T11:44:16.557Z,66.77
2024-02-20T11:45:16.558Z,67.35
2024-02-20T11:46:16.589Z,66.50
2024-02-20T11:47:16.545Z,65.81
2024-02-20T11:48:16.596Z,67.04
2024-02-20T11:49:16.547Z,67.65
2024-02-20T11:50:16.530Z,66.80
2024-02-20T11:51:16.500Z,65.92
2024-02-20T11:52:16.668Z,66.56
2024-02-20T11:53:16.929Z,67.61
2024-02-20T11:54:16.447Z,67.37
2024-02-20T11:55:16.487Z,68.90
2024-02-20T11:56:16.434Z,68.90
2024-02-20T11:57:16.444Z,69.24
2024-02-20T11:58:16.467Z,69.68
2024-02-20T11:59:16.416Z,70.09
2024-02-20T12:00:16.376Z,69.99
2024-02-20T12:01:16.616Z,69.79
2024-02-20T12:02:16.403Z,71.01
2024-02-20T12:03:16.379Z,70.81
2024-02-20T12:04:16.483Z,70.26
2024-02-20T12:05:16.416Z,70.26
2024-02-20T12:06:16.332Z,69.62
2024-02-20T12:07:16.385Z,68.70
2024-02-20T12:08:16.508Z,69.72
2024-02-20T12:09:16.308Z,69.28
2024-02-20T12:10:16.324Z,68.46
2024-02-20T12:11:16.354Z,67.95
2024-02-20T12:12:16.256Z,68.87
2024-02-20T12:13:16.260Z,67.71
2024-02-20T12:14:16.269Z,68.23
2024-02-20T12:15:16.256Z,68.84
2024-02-20T12:16:16.233Z,68.30
2024-02-20T12:17:16.208Z,66.69
2024-02-20T12:18:16.281Z,66.69
2024-02-20T12:19:25.640Z,67.51
2024-02-20T12:20:16.327Z,67.71
2024-02-20T12:21:16.185Z,68.19
2024-02-20T12:22:16.190Z,68.50
2024-02-20T12:23:16.161Z,67.58
2024-02-20T12:24:16.119Z,66.53
2024-02-20T12:25:16.203Z,67.04
2024-02-20T12:26:16.127Z,67.96
2024-02-20T12:27:16.109Z,66.53
2024-02-20T12:28:16.126Z,67.85
2024-02-20T12:29:16.082Z,66.83
2024-02-20T12:30:16.067Z,66.33
2024-02-20T12:31:16.077Z,66.02
2024-02-20T12:32:16.066Z,66.46
2024-02-20T12:33:16.277Z,66.86
2024-02-20T12:34:16.160Z,67.38
2024-02-20T12:35:16.041Z,66.90
2024-02-20T12:36:16.001Z,67.10
2024-02-20T12:37:16.020Z,67.30
2024-02-20T12:38:15.985Z,67.41
2024-02-20T12:39:15.974Z,68.02
2024-02-20T12:40:16.017Z,67.65
2024-02-20T12:41:15.973Z,68.46
2024-02-20T12:42:15.932Z,68.08
2024-02-20T12:43:15.952Z,69.11
2024-02-20T12:44:15.915Z,68.57
2024-02-20T12:45:15.930Z,68.39
2024-02-20T12:46:16.042Z,69.24
2024-02-20T12:47:15.903Z,70.06
2024-02-20T12:48:15.966Z,69.85
2024-02-20T12:49:16.073Z,70.37
2024-02-20T12:50:15.877Z,69.96
2024-02-20T12:51:15.835Z,69.85
2024-02-20T12:52:15.880Z,69.75
2024-02-20T12:53:15.830Z,69.24